Aviation Digital Data Service (ADDS)

Output produced by METARs form (0340 UTC 27 July 2016)
found at http://www.aviationweather.gov/adds/metars/
 
KIAD 262322Z 2700/2806 VRB03KT P6SM VCSH BKN060 BKN200 
     FM271200 VRB03KT P6SM BKN060